Terminal Aerodrome Forecast
Issued by NWS

Home | Current Version | Previous Version | Text Only | Print | Product List | Glossary On
Versions: 1 2 3 4 5 6 7 8 9 10 11 12 13 14 15 16
989
FTUS46 KMTR 241120
TAFOAK
TAF
KOAK 241120Z 2412/2518 VRB03KT P6SM SKC
     FM241500 13004KT P6SM SKC
     FM241900 26009KT P6SM BKN150
     FM250300 28007KT P6SM SCT020 BKN200
     FM250800 28005KT P6SM BKN030 BKN100
     FM251400 VRB03KT P6SM SCT040=

USA.gov is the U.S. government's official web portal to all federal, state and local government web resources and services.